Monday, June 25, 2018, 12:21 AM EDT
Back to Local

KLEB, Lebanon Municipal Airport

Location: Lebanon, NH, United States Lat: 43.633
Local Time: 12:21 AM EDT ( 4:21 GMT) Lon: -72.3
Time Zone: US/Eastern Elev: 597 ft

Show me the last for .
Show Decoded

2018-06-24 23:53 METAR KLEB 250353Z AUTO 33004KT 10SM FEW065 OVC085 18/16 A2984 RMK AO2 RAE51
                 SLP096 P0001 T01780161 =
2018-06-24 22:53 METAR KLEB 250253Z AUTO 00000KT 10SM -RA SCT037 OVC075 18/16 A2984 RMK AO2
                 SLP099 P0002 60004 T01780161 53005 =
2018-06-24 21:53 METAR KLEB 250153Z 34004KT 10SM -RA OVC085 18/16 A2984 RMK AO2 RAB25 SLP098
                 P0002 T01830161 =
2018-06-24 20:53 METAR KLEB 250053Z 00000KT 10SM OVC043 18/16 A2982 RMK AO2 RAB15E36 SLP094 P0000
                 T01830161 =
2018-06-24 20:11 METAR KLEB 250011Z 03003KT 10SM SCT027 OVC034 19/16 A2983 RMK AO2 T01890161 =
2018-06-24 19:53 METAR KLEB 242353Z 00000KT 10SM BKN025 OVC035 19/16 A2983 RMK AO2 RAE24 SLP095
                 P0000 60001 T01890161 10222 20189 51006 =
2018-06-24 19:39 METAR KLEB 242339Z 00000KT 10SM BKN025 OVC033 19/16 A2983 RMK AO2 RAE24 P0000
                 T01890161 =
2018-06-24 19:03 METAR KLEB 242303Z 03004KT 10SM -RA FEW014 SCT025 OVC032 19/16 A2983 RMK AO2
                 P0000 T01940156 =
2018-06-24 18:53 METAR KLEB 242253Z 03006KT 10SM -RA FEW014 BKN025 OVC031 19/15 A2982 RMK AO2
                 RAB41 SLP092 P0001 T01940150 =
2018-06-24 17:53 METAR KLEB 242153Z 01005KT 10SM OVC018 20/15 A2982 RMK AO2 SLP091 T02000150 =
2018-06-24 17:30 METAR KLEB 242130Z 01006KT 10SM OVC015 21/15 A2982 RMK AO2 T02060150 =
2018-06-24 17:20 METAR KLEB 242120Z 03007KT 10SM OVC014 21/16 A2981 RMK AO2 T02060156 =
2018-06-24 16:53 METAR KLEB 242053Z VRB06KT 10SM OVC016 21/16 A2981 RMK AO2 SLP088 T02060156
                 53002 =
2018-06-24 15:53 METAR KLEB 241953Z 35006KT 10SM OVC021 22/16 A2980 RMK AO2 SLP086 T02170156 =
2018-06-24 14:53 METAR KLEB 241853Z 00000KT 10SM BR OVC024 22/16 A2980 RMK AO2 SLP084 T02170156 =
2018-06-24 13:53 METAR KLEB 241753Z 32004KT 6SM BR FEW014 OVC029 22/16 A2980 RMK AO2 SLP085
                 T02220156 10222 20144 58007 =
2018-06-24 13:02 METAR KLEB 241702Z 00000KT 6SM BR FEW024 OVC032 21/15 A2981 RMK AO2 T02110150 =
2018-06-24 12:53 METAR KLEB 241653Z VRB03KT 10SM BR SCT021 BKN027 OVC032 21/15 A2981 RMK AO2
                 SLP088 T02110150 =
2018-06-24 11:53 METAR KLEB 241553Z VRB03KT 5SM BR BKN016 OVC021 19/14 A2982 RMK AO2 SLP094
                 T01890139 =
2018-06-24 11:17 METAR KLEB 241517Z 06003KT 5SM BR SCT005 OVC018 18/14 A2982 RMK AO2 T01780139 =
2018-06-24 10:53 METAR KLEB 241453Z 00000KT 3SM BR OVC004 17/13 A2982 RMK AO2 SLP094 T01670133
                 51008 =
2018-06-24 09:53 METAR KLEB 241353Z 00000KT 3SM BR OVC004 16/13 A2982 RMK AO2 CIG 002V007 SLP094
                 T01610128 =
2018-06-24 08:53 METAR KLEB 241253Z 00000KT 3SM BR OVC004 15/12 A2981 RMK AO2 SLP091 T01500122 =
2018-06-24 08:00 METAR KLEB 241200Z 00000KT 10SM BR OVC004 15/12 A2980 RMK AO2 T01500117 =
2018-06-24 07:53 METAR KLEB 241153Z 00000KT 6SM BR OVC006 14/12 A2980 RMK AO2 CIG 003V008 SLP086
                 70063 T01440117 10150 20133 53003 =
2018-06-24 06:53 METAR KLEB 241053Z 04003KT 10SM OVC007 14/12 A2979 RMK AO2 CIG 005V009 SLP084
                 T01440117 =
2018-06-24 05:53 METAR KLEB 240953Z 00000KT 10SM OVC007 13/11 A2980 RMK AO2 CIG 005V010 SLP086
                 T01330111 =
2018-06-24 04:53 METAR KLEB 240853Z AUTO 00000KT 10SM BKN005 OVC010 13/11 A2979 RMK AO2 SLP084
                 T01330111 55008 =
2018-06-24 03:53 METAR KLEB 240753Z AUTO 00000KT 10SM OVC005 13/11 A2979 RMK AO2 SLP084 T01330111
                 =
2018-06-24 03:13 METAR KLEB 240713Z AUTO 00000KT 10SM BKN008 OVC014 13/11 A2980 RMK AO2 CIG
                 005V010 T01330111 =
2018-06-24 03:04 METAR KLEB 240704Z AUTO 00000KT 10SM SCT010 OVC014 13/11 A2980 RMK AO2 T01330111
                 =
2018-06-24 02:53 METAR KLEB 240653Z AUTO 00000KT 10SM FEW009 OVC015 13/11 A2980 RMK AO2 SLP087
                 T01330111 =
2018-06-24 02:40 METAR KLEB 240640Z AUTO 00000KT 10SM FEW009 OVC016 13/11 A2980 RMK AO2 T01330111
                 =
2018-06-24 01:53 METAR KLEB 240553Z AUTO 17004KT 10SM FEW011 OVC017 13/11 A2981 RMK AO2 SLP091
                 T01330111 10139 20133 56009 =
2018-06-24 01:49 METAR KLEB 240549Z AUTO 18003KT 10SM FEW011 OVC017 13/11 A2981 RMK AO2 =
2018-06-24 00:53 METAR KLEB 240453Z AUTO 00000KT 10SM BKN011 OVC019 13/11 A2981 RMK AO2 SLP091
                 T01330106 402000122 =
2018-06-24 00:45 METAR KLEB 240445Z AUTO 00000KT 10SM BKN013 OVC019 13/11 A2982 RMK AO2 T01330111
                 =
2018-06-24 00:38 METAR KLEB 240438Z AUTO 00000KT 10SM SCT013 OVC020 13/11 A2982 RMK AO2 T01330111
                 =

Support USWX by starting your Amazon purchase here.